Lentokenttä METAR

 

EFHK - Helsinki/Vantaa
Etäisyys sääasemasta: IKO 36km
Päivitetty: 20/08/2017 19:50
Melko pilvistä
Melko pilvistä
 Tuulen suunta ELO
Tuuli: ELO 5 m/s
Lämpötila: 17°C
Kastepiste: 13°C
Kosteus: 77%
Ilmanpaine: 1014 hPa
Pilvisyys: Melko pilvistä
Näkyvyys: 10 km
Pilviraja: Melko selkeää 853 m
Melko selkeää 5182 m
Melko pilvistä 6096 m
2017/08/20 16:50 EFHK 201650Z 20010KT 9999 FEW028 SCT170 BKN200 17/13 Q1014 NOSIG
EETN - Tallinn, Estonia
Etäisyys sääasemasta: EKA 97km
Päivitetty: 20/08/2017 20:20
Selkeää
Selkeää
 Tuulen suunta E
Tuuli: E 3 m/s
Lämpötila: 17°C
Kastepiste: 14°C
Kosteus: 83%
Yhteenveto: Selkeää
Näkyvyys: Suurempi kuin 10 km
2017/08/20 17:20 EETN 201720Z 19006KT 140V230 CAVOK 17/14 Q101
 
EFTU - Turku
Etäisyys sääasemasta: LLU 119km
Päivitetty: 20/08/2017 19:50
Melko pilvistä
Melko pilvistä
 Tuulen suunta LO
Tuuli: LO 5 m/s
Lämpötila: 17°C
Kastepiste: 11°C
Kosteus: 68%
Ilmanpaine: 1012 hPa
Pilvisyys: Melko pilvistä
Näkyvyys: 10 km
Pilviraja: Melko selkeää 792 m
Melko pilvistä 1097 m
2017/08/20 16:50 EFTU 201650Z AUTO 22009KT 160V270 9999 SCT026/// BKN036/// 17/11 Q1012
EFLP - Lappeenranta
Etäisyys sääasemasta: IKO 227km
Päivitetty: 20/08/2017 19:50
Selkeää
Selkeää
 
Yhteenveto: Selkeää
Näkyvyys: Suurempi kuin 10 km
2017/08/20 16:50 EFLP 201650Z AUTO CAVOK ///// Q////
 
EFJY - Jyvaskylä
Etäisyys sääasemasta: PKO 253km
Päivitetty: 20/08/2017 19:50
Selkeää
Selkeää
 Tuulen suunta E
Tuuli: E 3 m/s
Lämpötila: 18°C
Kastepiste: 11°C
Kosteus: 64%
Ilmanpaine: 1011 hPa
Yhteenveto: Selkeää
Näkyvyys: Suurempi kuin 10 km
2017/08/20 16:50 EFJY 201650Z AUTO 18006KT CAVOK 18/11 Q1011
EFSA - Savonlinna
Etäisyys sääasemasta: KO 313km
Päivitetty: 20/08/2017 19:50
Melko pilvistä
Melko pilvistä
 Tuulen suunta E
Tuuli: E 4 m/s
Lämpötila: 18°C
Kastepiste: 12°C
Kosteus: 68%
Ilmanpaine: 1014 hPa
Pilvisyys: Melko pilvistä
Näkyvyys: 10 km
Pilviraja: Melko selkeää 1036 m
Melko pilvistä 5182 m
Melko pilvistä 6767 m
2017/08/20 16:50 EFSA 201650Z AUTO 19007KT 150V230 9999 FEW034 BKN170 BKN222 18/12 Q1014
 
ESSA - Stockholm/Arlanda, Sweden
Etäisyys sääasemasta: L 363km
Päivitetty: 20/08/2017 19:50
Selkeää
Selkeää
 Tuulen suunta E
Tuuli: E 6 m/s
Lämpötila: 18°C
Kastepiste: 11°C
Kosteus: 64%
Ilmanpaine: 1010 hPa
Yhteenveto: Selkeää
Näkyvyys: Suurempi kuin 10 km
2017/08/20 16:50 ESSA 201650Z 19012KT CAVOK 18/11 Q1010 NOSIG
ESGG - Göteborg, Sweden
Etäisyys sääasemasta: LO 900km
Päivitetty: 20/08/2017 19:50
Melko selkeää
Melko selkeää
 Tuulen suunta LO
Tuuli: LO 3 m/s
Lämpötila: 15°C
Kastepiste: 12°C
Kosteus: 82%
Ilmanpaine: 1011 hPa
Pilvisyys: Melko selkeää
Näkyvyys: 10 km
Pilviraja: Melko selkeää 762 m
2017/08/20 16:50 ESGG 201650Z 23006KT 9999 FEW025 15/12 Q1011
 
ENGM - Oslo, Norway
Etäisyys sääasemasta: L 950km
Päivitetty: 20/08/2017 19:50
Heikkoa sadetta, Sadekuuroja, Melko selkeää
Heikkoa sadetta, Sadekuuroja, Melko selkeää
 Tuulen suunta E
Tuuli: E 5 m/s
Lämpötila: 17°C
Kastepiste: 10°C
Kosteus: 64%
Ilmanpaine: 1007 hPa
Yhteenveto: Heikkoa sadetta, Sadekuuroja
Pilvisyys: Melko selkeää
Näkyvyys: 10 km
Pilviraja: Melko selkeää 1341 m
Melko selkeää 1524 m
2017/08/20 16:50 ENGM 201650Z 18009KT 150V210 9999 -SHRA FEW044TCU SCT050 17/10 Q1007 NOSIG